createdAt,value
2019-04-11T00:03:45.952Z,58.51
2019-04-11T00:08:52.314Z,59.24
2019-04-11T00:13:57.844Z,58.90
2019-04-11T00:19:05.214Z,59.10
2019-04-11T00:24:10.524Z,60.01
2019-04-11T00:29:16.390Z,59.68
2019-04-11T00:34:22.799Z,58.42
2019-04-11T00:39:28.396Z,58.05
2019-04-11T00:44:34.753Z,58.57
2019-04-11T00:49:41.102Z,58.79
2019-04-11T00:54:46.981Z,57.95
2019-04-11T00:59:52.442Z,57.59
2019-04-11T01:04:57.723Z,57.38
2019-04-11T01:10:02.991Z,57.77
2019-04-11T01:15:11.235Z,58.04
2019-04-11T01:20:17.405Z,58.58
2019-04-11T01:25:24.116Z,58.27
2019-04-11T01:30:45.066Z,57.82
2019-04-11T01:35:49.997Z,60.79
2019-04-11T01:40:56.163Z,62.56
2019-04-11T01:46:02.207Z,63.67
2019-04-11T01:51:07.978Z,63.31
2019-04-11T01:56:13.370Z,63.03
2019-04-11T02:01:28.537Z,62.83
2019-04-11T02:06:34.161Z,62.05
2019-04-11T02:11:39.905Z,62.67
2019-04-11T02:16:45.442Z,61.97
2019-04-11T02:21:52.410Z,62.31
2019-04-11T02:27:06.492Z,63.23
2019-04-11T02:32:12.691Z,61.04
2019-04-11T02:37:19.749Z,59.62
2019-04-11T02:42:25.607Z,60.13
2019-04-11T02:47:35.002Z,59.06
2019-04-11T02:52:40.149Z,60.28
2019-04-11T02:57:48.308Z,59.77
2019-04-11T03:02:54.301Z,60.94
2019-04-11T03:08:00.762Z,61.32
2019-04-11T03:13:08.414Z,62.88
2019-04-11T03:18:33.152Z,63.14
2019-04-11T03:23:23.035Z,63.59
2019-04-11T03:28:31.275Z,63.14
2019-04-11T03:34:27.650Z,62.21
2019-04-11T03:39:07.712Z,62.59
2019-04-11T03:44:01.768Z,62.85
2019-04-11T03:49:06.213Z,64.53
2019-04-11T03:54:07.444Z,64.56
2019-04-11T03:59:16.322Z,64.44
2019-04-11T04:04:21.825Z,64.53
2019-04-11T04:09:29.107Z,64.19
2019-04-11T04:14:56.507Z,64.25
2019-04-11T04:20:39.531Z,64.23
2019-04-11T04:25:47.305Z,65.98
2019-04-11T04:30:53.788Z,66.07
2019-04-11T04:36:00.172Z,66.86
2019-04-11T04:41:21.067Z,65.79
2019-04-11T04:46:30.078Z,65.73
2019-04-11T04:51:24.283Z,66.76
2019-04-11T04:56:32.198Z,67.31
2019-04-11T05:01:37.304Z,67.60
2019-04-11T05:06:46.713Z,67.65
2019-04-11T05:11:51.108Z,68.51
2019-04-11T05:16:58.161Z,68.69
2019-04-11T05:22:03.530Z,68.02
2019-04-11T05:27:08.805Z,68.62
2019-04-11T05:32:15.484Z,68.58
2019-04-11T05:37:20.856Z,68.14
2019-04-11T05:42:27.098Z,68.01
2019-04-11T05:47:32.919Z,67.66
2019-04-11T05:52:38.254Z,66.35
2019-04-11T05:57:46.757Z,64.64
2019-04-11T06:02:59.674Z,63.71
2019-04-11T06:08:07.841Z,63.31
2019-04-11T06:13:16.422Z,60.76
2019-04-11T06:18:43.814Z,59.96
2019-04-11T06:24:04.529Z,56.12
2019-04-11T06:29:21.290Z,55.57
2019-04-11T06:34:24.052Z,54.82
2019-04-11T06:39:48.908Z,55.11
2019-04-11T06:45:13.426Z,53.65
2019-04-11T06:50:41.657Z,53.25
2019-04-11T06:55:57.385Z,52.68
2019-04-11T07:01:11.891Z,51.81
2019-04-11T07:06:20.053Z,52.41
2019-04-11T07:11:32.164Z,51.09
2019-04-11T07:17:04.076Z,50.42
2019-04-11T07:22:23.136Z,49.67
2019-04-11T07:27:30.445Z,49.12
2019-04-11T07:32:36.488Z,48.69
2019-04-11T07:37:47.381Z,47.42
2019-04-11T07:43:22.567Z,47.78
2019-04-11T07:48:40.322Z,47.43
2019-04-11T07:53:48.419Z,47.50
2019-04-11T07:58:57.049Z,45.92
2019-04-11T08:04:27.673Z,45.79
2019-04-11T08:09:41.592Z,46.17
2019-04-11T08:15:05.496Z,44.52
2019-04-11T08:20:42.316Z,43.37
2019-04-11T08:26:22.196Z,43.00
2019-04-11T08:31:47.059Z,45.11
2019-04-11T08:37:11.544Z,43.44
2019-04-11T08:42:47.245Z,42.96
2019-04-11T08:47:57.278Z,42.69
2019-04-11T08:53:18.478Z,43.27
2019-04-11T08:58:33.097Z,42.50
2019-04-11T09:04:10.460Z,43.41
2019-04-11T09:09:37.678Z,42.43
2019-04-11T09:15:02.451Z,40.96
2019-04-11T09:20:36.233Z,42.65
2019-04-11T09:26:20.219Z,40.08
2019-04-11T09:37:17.019Z,40.46
2019-04-11T09:42:45.254Z,40.70
2019-04-11T09:48:25.171Z,39.04
2019-04-11T09:53:32.472Z,39.18
2019-04-11T09:58:39.910Z,39.83
2019-04-11T10:03:45.897Z,38.65
2019-04-11T10:08:57.667Z,39.49
2019-04-11T10:14:09.319Z,39.02
2019-04-11T10:19:24.476Z,39.63
2019-04-11T10:24:57.486Z,40.25
2019-04-11T10:30:24.058Z,40.75
2019-04-11T10:35:42.865Z,38.78
2019-04-11T10:41:09.393Z,39.51
2019-04-11T10:46:27.145Z,38.47
2019-04-11T10:51:46.011Z,38.43
2019-04-11T10:57:09.041Z,38.46
2019-04-11T11:02:33.650Z,37.94
2019-04-11T11:07:40.356Z,36.73
2019-04-11T11:13:11.879Z,37.63
2019-04-11T11:19:07.523Z,37.91
2019-04-11T11:23:49.338Z,37.04
2019-04-11T11:29:31.958Z,35.09
2019-04-11T11:35:08.235Z,35.33
2019-04-11T11:40:38.449Z,32.23
2019-04-11T11:46:10.068Z,33.75
2019-04-11T11:51:26.613Z,32.01
2019-04-11T11:56:30.135Z,31.42
2019-04-11T12:01:38.917Z,31.62
2019-04-11T12:06:48.205Z,30.35
2019-04-11T12:11:57.477Z,28.46
2019-04-11T12:17:24.906Z,28.98
2019-04-11T12:22:30.870Z,28.28
2019-04-11T12:27:56.244Z,27.63
2019-04-11T12:33:27.698Z,26.41
2019-04-11T12:38:45.712Z,27.54
2019-04-11T12:44:12.681Z,25.75
2019-04-11T12:49:26.401Z,24.75
2019-04-11T12:54:31.829Z,24.38
2019-04-11T12:59:37.137Z,24.24
2019-04-11T13:04:45.182Z,24.12
2019-04-11T13:10:12.482Z,24.47
2019-04-11T13:15:28.731Z,23.94
2019-04-11T13:20:46.225Z,23.67
2019-04-11T13:26:10.325Z,23.83
2019-04-11T13:31:33.417Z,22.32
2019-04-11T13:37:06.737Z,22.77
2019-04-11T13:42:40.000Z,21.52
2019-04-11T13:48:03.673Z,20.88
2019-04-11T13:53:48.977Z,21.57
2019-04-11T13:59:13.162Z,24.16
2019-04-11T14:04:23.437Z,26.94
2019-04-11T14:09:38.405Z,26.75
2019-04-11T14:14:56.000Z,28.10
2019-04-11T14:20:28.553Z,28.48
2019-04-11T14:25:42.684Z,29.23
2019-04-11T14:31:06.897Z,30.53
2019-04-11T14:36:49.873Z,30.96
2019-04-11T14:42:12.618Z,31.72
2019-04-11T14:47:43.258Z,31.82
2019-04-11T14:52:50.960Z,32.31
2019-04-11T14:58:06.104Z,32.55
2019-04-11T15:03:36.232Z,31.51
2019-04-11T15:08:59.232Z,30.41
2019-04-11T15:14:18.173Z,30.17
2019-04-11T15:19:24.034Z,30.22
2019-04-11T15:24:29.358Z,27.76
2019-04-11T15:29:37.374Z,23.10
2019-04-11T15:34:54.193Z,21.95
2019-04-11T15:40:04.827Z,21.64
2019-04-11T15:45:30.188Z,21.37
2019-04-11T15:50:53.576Z,19.96
2019-04-11T15:56:30.358Z,19.88
2019-04-11T16:02:01.150Z,19.43
2019-04-11T16:07:25.773Z,19.52
2019-04-11T16:12:40.099Z,19.97
2019-04-11T16:18:09.248Z,23.98
2019-04-11T16:23:17.780Z,26.31
2019-04-11T16:28:54.007Z,29.34
2019-04-11T16:34:17.898Z,30.73
2019-04-11T16:39:55.192Z,31.26
2019-04-11T16:45:25.080Z,32.82
2019-04-11T16:50:30.230Z,33.74
2019-04-11T16:55:36.871Z,34.49
2019-04-11T17:00:42.614Z,33.42
2019-04-11T17:05:58.357Z,34.30
2019-04-11T17:11:12.686Z,33.30
2019-04-11T17:16:19.799Z,34.35
2019-04-11T17:21:25.081Z,35.18
2019-04-11T17:26:30.720Z,35.64
2019-04-11T17:31:36.209Z,37.22
2019-04-11T17:36:41.828Z,36.55
2019-04-11T17:41:48.783Z,37.41
2019-04-11T17:46:56.391Z,37.82
2019-04-11T17:52:04.860Z,38.70
2019-04-11T17:57:09.743Z,38.90
2019-04-11T18:02:15.231Z,39.44
2019-04-11T18:07:20.625Z,39.31
2019-04-11T18:12:26.762Z,40.87
2019-04-11T18:17:32.706Z,42.11
2019-04-11T18:22:39.208Z,42.73
2019-04-11T18:27:44.505Z,42.94
2019-04-11T18:36:31.959Z,41.90
2019-04-11T18:41:37.377Z,42.40
2019-04-11T18:46:42.869Z,42.78
2019-04-11T18:51:48.290Z,44.42
2019-04-11T18:56:53.658Z,43.63
2019-04-11T19:01:59.124Z,42.97
2019-04-11T19:07:05.097Z,43.69
2019-04-11T19:12:10.807Z,43.64
2019-04-11T19:17:16.428Z,44.02
2019-04-11T19:22:36.786Z,43.47
2019-04-11T19:27:29.822Z,43.84
2019-04-11T19:32:35.120Z,43.67
2019-04-11T19:37:42.121Z,44.20
2019-04-11T19:42:49.189Z,44.48
2019-04-11T19:47:57.297Z,45.33
2019-04-11T19:53:03.497Z,45.69
2019-04-11T19:58:09.935Z,46.47
2019-04-11T20:03:15.202Z,46.44
2019-04-11T20:08:20.674Z,46.70
2019-04-11T20:13:25.955Z,46.97
2019-04-11T20:18:31.340Z,47.55
2019-04-11T20:23:36.664Z,47.47
2019-04-11T20:28:41.894Z,48.84
2019-04-11T20:33:47.667Z,48.01
2019-04-11T20:38:53.512Z,48.61
2019-04-11T20:44:02.824Z,48.72
2019-04-11T20:49:09.021Z,48.69
2019-04-11T20:54:14.344Z,48.04
2019-04-11T20:59:20.538Z,48.89
2019-04-11T21:04:26.201Z,48.57
2019-04-11T21:09:33.358Z,48.71
2019-04-11T21:14:39.050Z,49.95
2019-04-11T21:19:47.140Z,49.17
2019-04-11T21:24:52.385Z,49.34
2019-04-11T21:29:59.756Z,48.74
2019-04-11T21:35:05.274Z,49.38
2019-04-11T21:40:11.033Z,49.97
2019-04-11T21:45:16.739Z,49.62
2019-04-11T21:50:22.079Z,49.27
2019-04-11T21:55:27.926Z,49.42
2019-04-11T22:00:41.846Z,49.74
2019-04-11T22:05:49.548Z,49.90
2019-04-11T22:10:55.090Z,50.76
2019-04-11T22:16:00.751Z,50.26
2019-04-11T22:21:06.095Z,50.07
2019-04-11T22:26:11.558Z,50.43
2019-04-11T22:31:17.216Z,51.01
2019-04-11T22:36:22.963Z,51.01
2019-04-11T22:41:29.292Z,50.14
2019-04-11T22:46:37.368Z,50.81
2019-04-11T22:51:43.450Z,49.94
2019-04-11T22:56:49.017Z,50.49
2019-04-11T23:01:57.132Z,49.37
2019-04-11T23:07:02.700Z,50.71
2019-04-11T23:12:08.271Z,49.74
2019-04-11T23:17:14.167Z,49.78
2019-04-11T23:22:20.109Z,50.61
2019-04-11T23:27:26.413Z,50.78
2019-04-11T23:32:31.683Z,49.99
2019-04-11T23:37:51.054Z,51.62
2019-04-11T23:42:56.717Z,50.46
2019-04-11T23:48:02.043Z,50.87
2019-04-11T23:53:07.504Z,50.86
2019-04-11T23:58:13.139Z,51.36
